sensor_id;sensor_type;location;lat;lon;timestamp;P1;durP1;ratioP1;P2;durP2;ratioP2
11568;SDS011;5840;46.894;15.542;2022-08-11T00:00:59;4.27;;;3.90;;
11568;SDS011;5840;46.894;15.542;2022-08-11T00:03:32;3.77;;;3.57;;
11568;SDS011;5840;46.894;15.542;2022-08-11T00:06:00;3.60;;;3.40;;
11568;SDS011;5840;46.894;15.542;2022-08-11T00:08:28;5.23;;;3.40;;
11568;SDS011;5840;46.894;15.542;2022-08-11T00:10:57;4.10;;;3.80;;
11568;SDS011;5840;46.894;15.542;2022-08-11T00:13:34;5.00;;;3.77;;
11568;SDS011;5840;46.894;15.542;2022-08-11T00:16:03;4.13;;;3.83;;
11568;SDS011;5840;46.894;15.542;2022-08-11T00:18:39;4.03;;;3.70;;
11568;SDS011;5840;46.894;15.542;2022-08-11T00:21:07;4.30;;;3.90;;
11568;SDS011;5840;46.894;15.542;2022-08-11T00:23:38;3.80;;;3.50;;
11568;SDS011;5840;46.894;15.542;2022-08-11T00:26:08;3.80;;;3.50;;
11568;SDS011;5840;46.894;15.542;2022-08-11T00:28:38;4.43;;;3.43;;
11568;SDS011;5840;46.894;15.542;2022-08-11T00:31:06;4.17;;;3.87;;
11568;SDS011;5840;46.894;15.542;2022-08-11T00:33:37;3.67;;;3.37;;
11568;SDS011;5840;46.894;15.542;2022-08-11T00:36:07;3.80;;;3.50;;
11568;SDS011;5840;46.894;15.542;2022-08-11T00:38:36;3.90;;;3.70;;
11568;SDS011;5840;46.894;15.542;2022-08-11T00:41:10;4.43;;;4.13;;
11568;SDS011;5840;46.894;15.542;2022-08-11T00:43:58;5.30;;;4.03;;
11568;SDS011;5840;46.894;15.542;2022-08-11T00:46:39;4.00;;;3.80;;
11568;SDS011;5840;46.894;15.542;2022-08-11T00:49:15;4.20;;;3.90;;
11568;SDS011;5840;46.894;15.542;2022-08-11T00:52:05;4.53;;;4.10;;
11568;SDS011;5840;46.894;15.542;2022-08-11T01:00:47;4.37;;;4.07;;
11568;SDS011;5840;46.894;15.542;2022-08-11T01:03:38;4.90;;;4.47;;
11568;SDS011;5840;46.894;15.542;2022-08-11T01:06:37;5.53;;;4.10;;
11568;SDS011;5840;46.894;15.542;2022-08-11T01:09:39;4.73;;;4.30;;
11568;SDS011;5840;46.894;15.542;2022-08-11T01:12:42;4.27;;;3.93;;
11568;SDS011;5840;46.894;15.542;2022-08-11T01:37:08;4.20;;;3.90;;
11568;SDS011;5840;46.894;15.542;2022-08-11T01:40:19;4.40;;;4.00;;
11568;SDS011;5840;46.894;15.542;2022-08-11T01:46:46;3.83;;;3.53;;
11568;SDS011;5840;46.894;15.542;2022-08-11T01:49:20;4.60;;;4.30;;
11568;SDS011;5840;46.894;15.542;2022-08-11T01:54:48;4.00;;;3.73;;
11568;SDS011;5840;46.894;15.542;2022-08-11T01:57:30;4.30;;;3.90;;
11568;SDS011;5840;46.894;15.542;2022-08-11T02:00:06;4.53;;;4.20;;
11568;SDS011;5840;46.894;15.542;2022-08-11T02:02:40;4.63;;;4.23;;
11568;SDS011;5840;46.894;15.542;2022-08-11T02:05:29;4.47;;;4.13;;
11568;SDS011;5840;46.894;15.542;2022-08-11T02:08:14;4.60;;;4.23;;
11568;SDS011;5840;46.894;15.542;2022-08-11T02:10:53;4.50;;;4.20;;
11568;SDS011;5840;46.894;15.542;2022-08-11T02:13:41;5.17;;;4.17;;
11568;SDS011;5840;46.894;15.542;2022-08-11T02:16:16;4.20;;;3.90;;
11568;SDS011;5840;46.894;15.542;2022-08-11T02:18:51;4.50;;;4.10;;
11568;SDS011;5840;46.894;15.542;2022-08-11T02:21:45;4.47;;;3.97;;
11568;SDS011;5840;46.894;15.542;2022-08-11T02:24:38;4.53;;;3.80;;
11568;SDS011;5840;46.894;15.542;2022-08-11T02:27:15;4.33;;;3.90;;
11568;SDS011;5840;46.894;15.542;2022-08-11T02:29:49;4.70;;;4.30;;
11568;SDS011;5840;46.894;15.542;2022-08-11T02:32:27;4.33;;;4.03;;
11568;SDS011;5840;46.894;15.542;2022-08-11T02:35:25;4.10;;;3.90;;
11568;SDS011;5840;46.894;15.542;2022-08-11T02:38:10;4.50;;;4.13;;
11568;SDS011;5840;46.894;15.542;2022-08-11T02:40:44;4.37;;;4.07;;
11568;SDS011;5840;46.894;15.542;2022-08-11T02:46:17;3.53;;;3.33;;
11568;SDS011;5840;46.894;15.542;2022-08-11T02:48:52;4.27;;;4.00;;
11568;SDS011;5840;46.894;15.542;2022-08-11T02:51:47;4.07;;;3.77;;
11568;SDS011;5840;46.894;15.542;2022-08-11T02:54:25;4.33;;;4.03;;
11568;SDS011;5840;46.894;15.542;2022-08-11T02:57:00;5.50;;;4.67;;
11568;SDS011;5840;46.894;15.542;2022-08-11T02:59:35;4.00;;;3.80;;
11568;SDS011;5840;46.894;15.542;2022-08-11T03:05:11;4.10;;;3.80;;
11568;SDS011;5840;46.894;15.542;2022-08-11T03:07:50;4.50;;;4.20;;
11568;SDS011;5840;46.894;15.542;2022-08-11T03:10:34;4.10;;;3.80;;
11568;SDS011;5840;46.894;15.542;2022-08-11T03:13:20;4.10;;;3.80;;
11568;SDS011;5840;46.894;15.542;2022-08-11T03:16:13;3.90;;;3.70;;
11568;SDS011;5840;46.894;15.542;2022-08-11T03:19:02;4.40;;;4.10;;
11568;SDS011;5840;46.894;15.542;2022-08-11T03:21:40;4.00;;;3.80;;
11568;SDS011;5840;46.894;15.542;2022-08-11T03:24:13;4.60;;;4.20;;
11568;SDS011;5840;46.894;15.542;2022-08-11T03:26:46;4.20;;;3.90;;
11568;SDS011;5840;46.894;15.542;2022-08-11T03:29:22;3.87;;;3.57;;
11568;SDS011;5840;46.894;15.542;2022-08-11T03:31:59;4.70;;;4.30;;
11568;SDS011;5840;46.894;15.542;2022-08-11T03:34:30;4.30;;;4.00;;
11568;SDS011;5840;46.894;15.542;2022-08-11T03:37:24;4.73;;;4.33;;
11568;SDS011;5840;46.894;15.542;2022-08-11T03:40:23;4.50;;;4.10;;
11568;SDS011;5840;46.894;15.542;2022-08-11T03:43:19;4.77;;;4.37;;
11568;SDS011;5840;46.894;15.542;2022-08-11T03:45:57;6.07;;;4.70;;
11568;SDS011;5840;46.894;15.542;2022-08-11T03:48:36;4.70;;;4.40;;
11568;SDS011;5840;46.894;15.542;2022-08-11T03:51:12;4.97;;;4.60;;
11568;SDS011;5840;46.894;15.542;2022-08-11T03:53:53;4.93;;;4.63;;
11568;SDS011;5840;46.894;15.542;2022-08-11T04:03:04;5.10;;;4.70;;
11568;SDS011;5840;46.894;15.542;2022-08-11T04:12:17;5.00;;;4.63;;
11568;SDS011;5840;46.894;15.542;2022-08-11T04:15:07;6.53;;;4.77;;
11568;SDS011;5840;46.894;15.542;2022-08-11T04:27:33;4.63;;;4.23;;
11568;SDS011;5840;46.894;15.542;2022-08-11T04:30:20;5.13;;;4.73;;
11568;SDS011;5840;46.894;15.542;2022-08-11T04:33:08;4.47;;;4.07;;
11568;SDS011;5840;46.894;15.542;2022-08-11T04:35:57;5.00;;;4.50;;
11568;SDS011;5840;46.894;15.542;2022-08-11T04:38:44;4.60;;;4.30;;
11568;SDS011;5840;46.894;15.542;2022-08-11T04:41:50;4.57;;;4.27;;
11568;SDS011;5840;46.894;15.542;2022-08-11T04:48:04;3.97;;;3.67;;
11568;SDS011;5840;46.894;15.542;2022-08-11T04:51:06;4.70;;;4.40;;
11568;SDS011;5840;46.894;15.542;2022-08-11T04:54:07;4.73;;;4.43;;
11568;SDS011;5840;46.894;15.542;2022-08-11T04:57:07;5.20;;;4.70;;
11568;SDS011;5840;46.894;15.542;2022-08-11T05:00:04;4.60;;;4.30;;
11568;SDS011;5840;46.894;15.542;2022-08-11T05:06:09;4.97;;;4.53;;
11568;SDS011;5840;46.894;15.542;2022-08-11T05:09:13;5.17;;;4.77;;
11568;SDS011;5840;46.894;15.542;2022-08-11T05:14:55;4.97;;;4.67;;
11568;SDS011;5840;46.894;15.542;2022-08-11T05:17:43;5.03;;;4.53;;
11568;SDS011;5840;46.894;15.542;2022-08-11T05:20:39;5.20;;;4.80;;
11568;SDS011;5840;46.894;15.542;2022-08-11T05:23:29;6.33;;;4.67;;
11568;SDS011;5840;46.894;15.542;2022-08-11T05:26:17;4.80;;;4.40;;
11568;SDS011;5840;46.894;15.542;2022-08-11T05:29:00;5.10;;;4.70;;
11568;SDS011;5840;46.894;15.542;2022-08-11T05:31:49;5.50;;;5.10;;
11568;SDS011;5840;46.894;15.542;2022-08-11T05:34:41;5.00;;;4.60;;
11568;SDS011;5840;46.894;15.542;2022-08-11T05:37:19;4.97;;;4.57;;
11568;SDS011;5840;46.894;15.542;2022-08-11T05:39:52;4.50;;;4.10;;
11568;SDS011;5840;46.894;15.542;2022-08-11T05:42:42;5.20;;;4.70;;
11568;SDS011;5840;46.894;15.542;2022-08-11T05:45:33;5.33;;;4.87;;
11568;SDS011;5840;46.894;15.542;2022-08-11T05:48:18;5.23;;;4.83;;
11568;SDS011;5840;46.894;15.542;2022-08-11T05:51:03;5.30;;;4.80;;
11568;SDS011;5840;46.894;15.542;2022-08-11T05:53:51;5.60;;;4.97;;
11568;SDS011;5840;46.894;15.542;2022-08-11T05:56:42;6.93;;;4.90;;
11568;SDS011;5840;46.894;15.542;2022-08-11T05:59:15;7.13;;;5.57;;
11568;SDS011;5840;46.894;15.542;2022-08-11T06:01:43;5.80;;;5.30;;
11568;SDS011;5840;46.894;15.542;2022-08-11T06:04:14;6.00;;;5.40;;
11568;SDS011;5840;46.894;15.542;2022-08-11T06:06:50;6.77;;;5.03;;
11568;SDS011;5840;46.894;15.542;2022-08-11T06:09:26;6.20;;;5.50;;
11568;SDS011;5840;46.894;15.542;2022-08-11T06:11:56;6.53;;;5.57;;
11568;SDS011;5840;46.894;15.542;2022-08-11T06:14:25;6.50;;;5.50;;
11568;SDS011;5840;46.894;15.542;2022-08-11T06:16:54;5.57;;;4.97;;
11568;SDS011;5840;46.894;15.542;2022-08-11T06:19:30;5.70;;;5.17;;
11568;SDS011;5840;46.894;15.542;2022-08-11T06:22:02;5.90;;;5.07;;
11568;SDS011;5840;46.894;15.542;2022-08-11T06:24:31;5.83;;;4.63;;
11568;SDS011;5840;46.894;15.542;2022-08-11T06:27:00;8.77;;;5.60;;
11568;SDS011;5840;46.894;15.542;2022-08-11T06:29:30;6.47;;;5.23;;
11568;SDS011;5840;46.894;15.542;2022-08-11T06:31:59;9.83;;;5.50;;
11568;SDS011;5840;46.894;15.542;2022-08-11T06:34:31;6.23;;;5.60;;
11568;SDS011;5840;46.894;15.542;2022-08-11T06:37:12;11.00;;;5.70;;
11568;SDS011;5840;46.894;15.542;2022-08-11T06:39:49;7.37;;;5.27;;
11568;SDS011;5840;46.894;15.542;2022-08-11T06:42:28;5.97;;;5.20;;
11568;SDS011;5840;46.894;15.542;2022-08-11T06:45:13;6.13;;;5.53;;
11568;SDS011;5840;46.894;15.542;2022-08-11T06:47:49;6.60;;;5.07;;
11568;SDS011;5840;46.894;15.542;2022-08-11T06:50:18;6.50;;;4.93;;
11568;SDS011;5840;46.894;15.542;2022-08-11T06:53:04;7.80;;;5.07;;
11568;SDS011;5840;46.894;15.542;2022-08-11T06:55:37;5.53;;;4.93;;
11568;SDS011;5840;46.894;15.542;2022-08-11T06:58:25;5.37;;;4.87;;
11568;SDS011;5840;46.894;15.542;2022-08-11T07:01:14;7.53;;;4.80;;
11568;SDS011;5840;46.894;15.542;2022-08-11T07:03:51;5.93;;;5.33;;
11568;SDS011;5840;46.894;15.542;2022-08-11T07:06:27;6.07;;;5.10;;
11568;SDS011;5840;46.894;15.542;2022-08-11T07:09:08;5.97;;;4.90;;
11568;SDS011;5840;46.894;15.542;2022-08-11T07:12:28;7.03;;;5.13;;
11568;SDS011;5840;46.894;15.542;2022-08-11T07:15:22;7.03;;;4.87;;
11568;SDS011;5840;46.894;15.542;2022-08-11T07:18:10;5.07;;;4.33;;
11568;SDS011;5840;46.894;15.542;2022-08-11T07:21:05;5.83;;;4.50;;
11568;SDS011;5840;46.894;15.542;2022-08-11T07:23:53;6.87;;;4.70;;
11568;SDS011;5840;46.894;15.542;2022-08-11T07:26:40;4.20;;;3.80;;
11568;SDS011;5840;46.894;15.542;2022-08-11T07:29:28;4.10;;;3.67;;
11568;SDS011;5840;46.894;15.542;2022-08-11T07:31:57;3.80;;;3.50;;
11568;SDS011;5840;46.894;15.542;2022-08-11T07:34:33;4.13;;;3.30;;
11568;SDS011;5840;46.894;15.542;2022-08-11T07:37:03;4.10;;;3.70;;
11568;SDS011;5840;46.894;15.542;2022-08-11T07:39:34;3.67;;;3.37;;
11568;SDS011;5840;46.894;15.542;2022-08-11T07:42:04;4.13;;;3.10;;
11568;SDS011;5840;46.894;15.542;2022-08-11T07:44:33;3.20;;;2.90;;
11568;SDS011;5840;46.894;15.542;2022-08-11T07:47:22;3.80;;;2.70;;
11568;SDS011;5840;46.894;15.542;2022-08-11T07:50:13;3.07;;;2.77;;
11568;SDS011;5840;46.894;15.542;2022-08-11T07:52:59;2.93;;;2.73;;
11568;SDS011;5840;46.894;15.542;2022-08-11T07:55:27;3.03;;;2.70;;
11568;SDS011;5840;46.894;15.542;2022-08-11T07:57:55;3.07;;;2.87;;
11568;SDS011;5840;46.894;15.542;2022-08-11T08:00:45;3.03;;;2.70;;
11568;SDS011;5840;46.894;15.542;2022-08-11T08:03:32;3.23;;;2.90;;
11568;SDS011;5840;46.894;15.542;2022-08-11T08:06:17;3.13;;;2.70;;
11568;SDS011;5840;46.894;15.542;2022-08-11T08:09:02;3.50;;;2.93;;
11568;SDS011;5840;46.894;15.542;2022-08-11T08:11:49;3.13;;;2.53;;
11568;SDS011;5840;46.894;15.542;2022-08-11T08:14:34;3.37;;;2.80;;
11568;SDS011;5840;46.894;15.542;2022-08-11T08:17:21;2.83;;;2.63;;
11568;SDS011;5840;46.894;15.542;2022-08-11T08:20:07;3.33;;;3.13;;
11568;SDS011;5840;46.894;15.542;2022-08-11T08:22:38;3.10;;;2.90;;
11568;SDS011;5840;46.894;15.542;2022-08-11T08:25:06;4.87;;;3.27;;
11568;SDS011;5840;46.894;15.542;2022-08-11T08:27:34;4.23;;;3.00;;
11568;SDS011;5840;46.894;15.542;2022-08-11T08:30:03;3.13;;;2.93;;
11568;SDS011;5840;46.894;15.542;2022-08-11T08:32:50;4.67;;;3.00;;
11568;SDS011;5840;46.894;15.542;2022-08-11T08:35:19;3.73;;;2.73;;
11568;SDS011;5840;46.894;15.542;2022-08-11T08:37:48;3.47;;;2.67;;
11568;SDS011;5840;46.894;15.542;2022-08-11T08:40:16;2.97;;;2.70;;
11568;SDS011;5840;46.894;15.542;2022-08-11T08:42:45;3.00;;;2.80;;
11568;SDS011;5840;46.894;15.542;2022-08-11T08:45:17;2.33;;;2.23;;
11568;SDS011;5840;46.894;15.542;2022-08-11T08:47:46;2.77;;;2.53;;
11568;SDS011;5840;46.894;15.542;2022-08-11T08:50:19;3.33;;;3.13;;
11568;SDS011;5840;46.894;15.542;2022-08-11T08:52:51;2.93;;;2.60;;
11568;SDS011;5840;46.894;15.542;2022-08-11T08:55:21;3.00;;;2.70;;
11568;SDS011;5840;46.894;15.542;2022-08-11T08:57:48;3.03;;;2.83;;
11568;SDS011;5840;46.894;15.542;2022-08-11T09:00:17;3.87;;;2.83;;
11568;SDS011;5840;46.894;15.542;2022-08-11T09:02:45;2.83;;;2.60;;
11568;SDS011;5840;46.894;15.542;2022-08-11T09:05:17;2.97;;;2.67;;
11568;SDS011;5840;46.894;15.542;2022-08-11T09:07:45;2.90;;;2.70;;
11568;SDS011;5840;46.894;15.542;2022-08-11T09:10:16;2.90;;;2.70;;
11568;SDS011;5840;46.894;15.542;2022-08-11T09:12:44;2.70;;;2.50;;
11568;SDS011;5840;46.894;15.542;2022-08-11T09:15:12;2.93;;;2.70;;
11568;SDS011;5840;46.894;15.542;2022-08-11T09:17:42;2.60;;;2.40;;
11568;SDS011;5840;46.894;15.542;2022-08-11T09:20:12;2.53;;;2.33;;
11568;SDS011;5840;46.894;15.542;2022-08-11T09:22:42;2.77;;;2.57;;
11568;SDS011;5840;46.894;15.542;2022-08-11T09:25:28;2.80;;;2.60;;
11568;SDS011;5840;46.894;15.542;2022-08-11T09:28:14;2.40;;;2.30;;
11568;SDS011;5840;46.894;15.542;2022-08-11T09:30:46;4.03;;;2.80;;
11568;SDS011;5840;46.894;15.542;2022-08-11T09:33:17;2.77;;;2.40;;
11568;SDS011;5840;46.894;15.542;2022-08-11T09:35:46;2.67;;;2.40;;
11568;SDS011;5840;46.894;15.542;2022-08-11T09:38:17;3.70;;;2.70;;
11568;SDS011;5840;46.894;15.542;2022-08-11T09:41:03;2.93;;;2.63;;
11568;SDS011;5840;46.894;15.542;2022-08-11T09:43:34;2.87;;;2.67;;
11568;SDS011;5840;46.894;15.542;2022-08-11T09:46:22;2.77;;;2.57;;
11568;SDS011;5840;46.894;15.542;2022-08-11T09:48:53;2.70;;;2.50;;
11568;SDS011;5840;46.894;15.542;2022-08-11T09:51:23;2.93;;;2.40;;
11568;SDS011;5840;46.894;15.542;2022-08-11T09:53:52;4.43;;;2.77;;
11568;SDS011;5840;46.894;15.542;2022-08-11T09:56:20;2.40;;;2.30;;
11568;SDS011;5840;46.894;15.542;2022-08-11T09:59:06;2.67;;;2.47;;
11568;SDS011;5840;46.894;15.542;2022-08-11T10:01:34;2.33;;;2.20;;
11568;SDS011;5840;46.894;15.542;2022-08-11T10:04:07;2.67;;;2.57;;
11568;SDS011;5840;46.894;15.542;2022-08-11T10:06:39;2.53;;;2.33;;
11568;SDS011;5840;46.894;15.542;2022-08-11T10:09:27;2.50;;;2.30;;
11568;SDS011;5840;46.894;15.542;2022-08-11T10:12:01;2.97;;;2.33;;
11568;SDS011;5840;46.894;15.542;2022-08-11T10:14:31;2.67;;;2.47;;
11568;SDS011;5840;46.894;15.542;2022-08-11T10:17:20;2.33;;;2.13;;
11568;SDS011;5840;46.894;15.542;2022-08-11T10:19:48;4.23;;;2.67;;
11568;SDS011;5840;46.894;15.542;2022-08-11T10:22:16;2.50;;;2.27;;
11568;SDS011;5840;46.894;15.542;2022-08-11T10:25:03;2.50;;;2.40;;
11568;SDS011;5840;46.894;15.542;2022-08-11T10:27:48;2.57;;;2.37;;
11568;SDS011;5840;46.894;15.542;2022-08-11T10:30:20;3.77;;;2.57;;
11568;SDS011;5840;46.894;15.542;2022-08-11T10:33:06;3.03;;;2.83;;
11568;SDS011;5840;46.894;15.542;2022-08-11T10:35:50;2.63;;;2.43;;
11568;SDS011;5840;46.894;15.542;2022-08-11T10:38:17;2.70;;;2.60;;
11568;SDS011;5840;46.894;15.542;2022-08-11T10:40:46;3.57;;;2.60;;
11568;SDS011;5840;46.894;15.542;2022-08-11T10:43:36;2.80;;;2.70;;
11568;SDS011;5840;46.894;15.542;2022-08-11T10:46:04;2.60;;;2.40;;
11568;SDS011;5840;46.894;15.542;2022-08-11T10:48:51;2.97;;;2.57;;
11568;SDS011;5840;46.894;15.542;2022-08-11T10:51:20;3.87;;;2.50;;
11568;SDS011;5840;46.894;15.542;2022-08-11T10:54:04;2.80;;;2.60;;
11568;SDS011;5840;46.894;15.542;2022-08-11T10:56:50;2.30;;;2.13;;
11568;SDS011;5840;46.894;15.542;2022-08-11T10:59:37;2.83;;;2.63;;
11568;SDS011;5840;46.894;15.542;2022-08-11T11:02:06;2.53;;;2.33;;
11568;SDS011;5840;46.894;15.542;2022-08-11T11:04:38;3.13;;;2.70;;
11568;SDS011;5840;46.894;15.542;2022-08-11T11:07:19;3.50;;;2.57;;
11568;SDS011;5840;46.894;15.542;2022-08-11T11:09:48;2.63;;;2.40;;
11568;SDS011;5840;46.894;15.542;2022-08-11T11:12:22;2.37;;;2.17;;
11568;SDS011;5840;46.894;15.542;2022-08-11T11:15:09;3.90;;;2.40;;
11568;SDS011;5840;46.894;15.542;2022-08-11T11:17:56;2.40;;;2.30;;
11568;SDS011;5840;46.894;15.542;2022-08-11T11:20:32;2.80;;;2.60;;
11568;SDS011;5840;46.894;15.542;2022-08-11T11:23:05;2.87;;;2.47;;
11568;SDS011;5840;46.894;15.542;2022-08-11T11:28:50;2.43;;;2.23;;
11568;SDS011;5840;46.894;15.542;2022-08-11T11:31:42;2.97;;;2.60;;
11568;SDS011;5840;46.894;15.542;2022-08-11T11:34:20;3.07;;;2.87;;
11568;SDS011;5840;46.894;15.542;2022-08-11T11:37:00;2.53;;;2.33;;
11568;SDS011;5840;46.894;15.542;2022-08-11T11:39:30;2.70;;;2.50;;
11568;SDS011;5840;46.894;15.542;2022-08-11T11:41:59;2.90;;;2.70;;
11568;SDS011;5840;46.894;15.542;2022-08-11T11:44:29;3.13;;;2.40;;
11568;SDS011;5840;46.894;15.542;2022-08-11T11:46:57;2.60;;;2.30;;
11568;SDS011;5840;46.894;15.542;2022-08-11T11:49:26;2.40;;;2.30;;
11568;SDS011;5840;46.894;15.542;2022-08-11T11:51:57;2.53;;;2.33;;
11568;SDS011;5840;46.894;15.542;2022-08-11T11:54:26;2.70;;;2.50;;
11568;SDS011;5840;46.894;15.542;2022-08-11T11:56:55;4.13;;;2.60;;
11568;SDS011;5840;46.894;15.542;2022-08-11T11:59:44;3.00;;;2.30;;
11568;SDS011;5840;46.894;15.542;2022-08-11T12:02:30;2.63;;;2.43;;
11568;SDS011;5840;46.894;15.542;2022-08-11T12:04:58;2.50;;;2.30;;
11568;SDS011;5840;46.894;15.542;2022-08-11T12:07:26;2.80;;;2.20;;
11568;SDS011;5840;46.894;15.542;2022-08-11T12:10:12;2.90;;;2.70;;
11568;SDS011;5840;46.894;15.542;2022-08-11T12:12:40;2.63;;;2.43;;
11568;SDS011;5840;46.894;15.542;2022-08-11T12:15:25;2.73;;;2.53;;
11568;SDS011;5840;46.894;15.542;2022-08-11T12:17:52;2.67;;;2.47;;
11568;SDS011;5840;46.894;15.542;2022-08-11T12:20:21;2.87;;;2.67;;
11568;SDS011;5840;46.894;15.542;2022-08-11T12:22:49;2.57;;;2.40;;
11568;SDS011;5840;46.894;15.542;2022-08-11T12:25:34;3.00;;;2.70;;
11568;SDS011;5840;46.894;15.542;2022-08-11T12:28:19;2.67;;;2.50;;
11568;SDS011;5840;46.894;15.542;2022-08-11T12:30:48;2.80;;;2.60;;
11568;SDS011;5840;46.894;15.542;2022-08-11T12:33:17;2.60;;;2.40;;
11568;SDS011;5840;46.894;15.542;2022-08-11T12:35:46;2.60;;;2.40;;
11568;SDS011;5840;46.894;15.542;2022-08-11T12:38:17;2.60;;;2.40;;
11568;SDS011;5840;46.894;15.542;2022-08-11T12:40:46;2.50;;;2.30;;
11568;SDS011;5840;46.894;15.542;2022-08-11T12:43:33;3.13;;;2.40;;
11568;SDS011;5840;46.894;15.542;2022-08-11T12:46:20;2.57;;;2.40;;
11568;SDS011;5840;46.894;15.542;2022-08-11T12:48:52;4.57;;;2.70;;
11568;SDS011;5840;46.894;15.542;2022-08-11T12:51:41;2.90;;;2.63;;
11568;SDS011;5840;46.894;15.542;2022-08-11T12:54:25;2.60;;;2.40;;
11568;SDS011;5840;46.894;15.542;2022-08-11T12:56:57;3.33;;;2.47;;
11568;SDS011;5840;46.894;15.542;2022-08-11T12:59:44;2.77;;;2.57;;
11568;SDS011;5840;46.894;15.542;2022-08-11T13:02:30;2.60;;;2.50;;
11568;SDS011;5840;46.894;15.542;2022-08-11T13:05:15;2.30;;;2.20;;
11568;SDS011;5840;46.894;15.542;2022-08-11T13:07:43;2.83;;;2.63;;
11568;SDS011;5840;46.894;15.542;2022-08-11T13:10:12;2.30;;;2.20;;
11568;SDS011;5840;46.894;15.542;2022-08-11T13:13:01;2.83;;;2.63;;
11568;SDS011;5840;46.894;15.542;2022-08-11T13:15:27;2.37;;;2.27;;
11568;SDS011;5840;46.894;15.542;2022-08-11T13:17:57;3.03;;;2.67;;
11568;SDS011;5840;46.894;15.542;2022-08-11T13:20:24;2.40;;;2.30;;
11568;SDS011;5840;46.894;15.542;2022-08-11T13:22:53;2.50;;;2.30;;
11568;SDS011;5840;46.894;15.542;2022-08-11T13:25:23;2.67;;;2.47;;
11568;SDS011;5840;46.894;15.542;2022-08-11T13:27:52;3.23;;;2.60;;
11568;SDS011;5840;46.894;15.542;2022-08-11T13:30:22;2.83;;;2.43;;
11568;SDS011;5840;46.894;15.542;2022-08-11T13:33:10;2.23;;;2.13;;
11568;SDS011;5840;46.894;15.542;2022-08-11T13:35:38;2.63;;;2.43;;
11568;SDS011;5840;46.894;15.542;2022-08-11T13:38:07;2.53;;;2.33;;
11568;SDS011;5840;46.894;15.542;2022-08-11T13:40:37;2.70;;;2.50;;
11568;SDS011;5840;46.894;15.542;2022-08-11T13:43:05;2.50;;;2.30;;
11568;SDS011;5840;46.894;15.542;2022-08-11T13:45:34;2.60;;;2.40;;
11568;SDS011;5840;46.894;15.542;2022-08-11T13:48:02;2.53;;;2.43;;
11568;SDS011;5840;46.894;15.542;2022-08-11T13:50:35;2.60;;;2.40;;
11568;SDS011;5840;46.894;15.542;2022-08-11T13:53:21;2.33;;;2.23;;
11568;SDS011;5840;46.894;15.542;2022-08-11T13:55:49;2.77;;;2.57;;
11568;SDS011;5840;46.894;15.542;2022-08-11T13:58:17;2.53;;;2.37;;
11568;SDS011;5840;46.894;15.542;2022-08-11T14:00:47;2.50;;;2.23;;
11568;SDS011;5840;46.894;15.542;2022-08-11T14:03:16;2.50;;;2.30;;
11568;SDS011;5840;46.894;15.542;2022-08-11T14:05:50;3.00;;;2.40;;
11568;SDS011;5840;46.894;15.542;2022-08-11T14:08:23;2.43;;;2.23;;
11568;SDS011;5840;46.894;15.542;2022-08-11T14:10:51;2.37;;;2.27;;
11568;SDS011;5840;46.894;15.542;2022-08-11T14:13:42;2.33;;;2.23;;
11568;SDS011;5840;46.894;15.542;2022-08-11T14:16:11;2.47;;;2.30;;
11568;SDS011;5840;46.894;15.542;2022-08-11T14:18:45;2.67;;;2.50;;
11568;SDS011;5840;46.894;15.542;2022-08-11T14:21:16;2.40;;;2.30;;
11568;SDS011;5840;46.894;15.542;2022-08-11T14:24:02;2.43;;;2.27;;
11568;SDS011;5840;46.894;15.542;2022-08-11T14:26:30;4.67;;;2.30;;
11568;SDS011;5840;46.894;15.542;2022-08-11T14:29:04;3.27;;;2.50;;
11568;SDS011;5840;46.894;15.542;2022-08-11T14:31:34;3.97;;;2.30;;
11568;SDS011;5840;46.894;15.542;2022-08-11T14:34:04;3.13;;;2.50;;
11568;SDS011;5840;46.894;15.542;2022-08-11T14:36:34;2.70;;;2.50;;
11568;SDS011;5840;46.894;15.542;2022-08-11T14:39:04;2.40;;;2.30;;
11568;SDS011;5840;46.894;15.542;2022-08-11T14:41:37;2.20;;;2.10;;
11568;SDS011;5840;46.894;15.542;2022-08-11T14:44:22;2.97;;;2.40;;
11568;SDS011;5840;46.894;15.542;2022-08-11T14:47:07;2.40;;;2.30;;
11568;SDS011;5840;46.894;15.542;2022-08-11T14:49:38;2.53;;;2.33;;
11568;SDS011;5840;46.894;15.542;2022-08-11T14:52:09;2.43;;;2.33;;
11568;SDS011;5840;46.894;15.542;2022-08-11T14:54:40;2.73;;;2.53;;
11568;SDS011;5840;46.894;15.542;2022-08-11T14:57:26;2.47;;;2.37;;
11568;SDS011;5840;46.894;15.542;2022-08-11T14:59:57;2.50;;;2.30;;
11568;SDS011;5840;46.894;15.542;2022-08-11T15:02:26;2.60;;;2.50;;
11568;SDS011;5840;46.894;15.542;2022-08-11T15:05:12;2.40;;;2.20;;
11568;SDS011;5840;46.894;15.542;2022-08-11T15:07:42;2.23;;;2.13;;
11568;SDS011;5840;46.894;15.542;2022-08-11T15:10:11;2.40;;;2.30;;
11568;SDS011;5840;46.894;15.542;2022-08-11T15:12:38;3.00;;;2.70;;
11568;SDS011;5840;46.894;15.542;2022-08-11T15:15:07;2.30;;;2.20;;
11568;SDS011;5840;46.894;15.542;2022-08-11T15:17:53;2.23;;;2.13;;
11568;SDS011;5840;46.894;15.542;2022-08-11T15:20:22;2.73;;;2.53;;
11568;SDS011;5840;46.894;15.542;2022-08-11T15:23:10;2.37;;;2.13;;
11568;SDS011;5840;46.894;15.542;2022-08-11T15:25:55;2.40;;;2.30;;
11568;SDS011;5840;46.894;15.542;2022-08-11T15:28:25;2.47;;;2.27;;
11568;SDS011;5840;46.894;15.542;2022-08-11T15:31:11;2.77;;;2.57;;
11568;SDS011;5840;46.894;15.542;2022-08-11T15:34:00;2.50;;;2.30;;
11568;SDS011;5840;46.894;15.542;2022-08-11T15:36:48;2.57;;;2.40;;
11568;SDS011;5840;46.894;15.542;2022-08-11T15:39:44;2.43;;;2.33;;
11568;SDS011;5840;46.894;15.542;2022-08-11T15:42:32;2.43;;;2.33;;
11568;SDS011;5840;46.894;15.542;2022-08-11T15:45:21;2.50;;;2.40;;
11568;SDS011;5840;46.894;15.542;2022-08-11T15:48:08;3.10;;;2.40;;
11568;SDS011;5840;46.894;15.542;2022-08-11T15:50:41;3.20;;;2.40;;
11568;SDS011;5840;46.894;15.542;2022-08-11T15:53:19;2.47;;;2.37;;
11568;SDS011;5840;46.894;15.542;2022-08-11T15:55:54;2.40;;;2.17;;
11568;SDS011;5840;46.894;15.542;2022-08-11T15:58:23;2.67;;;2.47;;
11568;SDS011;5840;46.894;15.542;2022-08-11T16:01:10;2.83;;;2.63;;
11568;SDS011;5840;46.894;15.542;2022-08-11T16:03:59;2.30;;;2.10;;
11568;SDS011;5840;46.894;15.542;2022-08-11T16:06:40;2.60;;;2.50;;
11568;SDS011;5840;46.894;15.542;2022-08-11T16:09:16;2.03;;;1.90;;
11568;SDS011;5840;46.894;15.542;2022-08-11T16:11:47;2.53;;;2.20;;
11568;SDS011;5840;46.894;15.542;2022-08-11T16:14:15;2.40;;;2.30;;
11568;SDS011;5840;46.894;15.542;2022-08-11T16:17:01;3.10;;;2.20;;
11568;SDS011;5840;46.894;15.542;2022-08-11T16:19:31;2.70;;;2.50;;
11568;SDS011;5840;46.894;15.542;2022-08-11T16:22:00;2.30;;;2.20;;
11568;SDS011;5840;46.894;15.542;2022-08-11T16:24:31;2.80;;;2.60;;
11568;SDS011;5840;46.894;15.542;2022-08-11T16:27:02;2.40;;;2.30;;
11568;SDS011;5840;46.894;15.542;2022-08-11T16:29:31;2.37;;;2.27;;
11568;SDS011;5840;46.894;15.542;2022-08-11T16:32:02;3.33;;;2.20;;
11568;SDS011;5840;46.894;15.542;2022-08-11T16:34:42;2.30;;;2.10;;
11568;SDS011;5840;46.894;15.542;2022-08-11T16:37:28;2.60;;;2.40;;
11568;SDS011;5840;46.894;15.542;2022-08-11T16:40:16;2.70;;;2.50;;
11568;SDS011;5840;46.894;15.542;2022-08-11T16:42:46;2.60;;;2.40;;
11568;SDS011;5840;46.894;15.542;2022-08-11T16:45:31;2.20;;;2.10;;
11568;SDS011;5840;46.894;15.542;2022-08-11T16:48:17;2.47;;;2.27;;
11568;SDS011;5840;46.894;15.542;2022-08-11T16:50:45;2.90;;;2.70;;
11568;SDS011;5840;46.894;15.542;2022-08-11T16:53:13;2.47;;;2.30;;
11568;SDS011;5840;46.894;15.542;2022-08-11T16:55:41;2.60;;;2.40;;
11568;SDS011;5840;46.894;15.542;2022-08-11T16:58:11;4.43;;;2.60;;
11568;SDS011;5840;46.894;15.542;2022-08-11T17:00:56;2.57;;;2.37;;
11568;SDS011;5840;46.894;15.542;2022-08-11T17:03:24;2.67;;;2.47;;
11568;SDS011;5840;46.894;15.542;2022-08-11T17:06:17;3.00;;;2.70;;
11568;SDS011;5840;46.894;15.542;2022-08-11T17:09:04;2.70;;;2.50;;